JBK weather

CLOSED Berkley Municipal Heliport
Oakland, California, United States

Public forecast

Using degrees Fahrenheit for public forecast. Weather courtesy of forecast.io.

METAR (pilot weather report)

Closest report is Metropolitan Oakland International Airport, 9.6 nm (17.8 km) SSE. Retrieved 2019/06/20 08:53 UTC (13 minutes ago):

KOAK 200853Z 25010KT 10SM OVC012 17/13 A2990 RMK AO2 SLP124 T01670128 58008

TAF (pilot weather forecast)

Closest forecast is Metropolitan Oakland International Airport, 9.6 nm (17.8 km) SSE. Retrieved 2019/06/20 06:24 UTC (3 hours ago):

TAF KOAK 200521Z 2006/2112 29010KT P6SM FEW005 BKN008 FM200800 26013KT P6SM OVC008 FM201800 28016KT P6SM FEW010 FM210500 28007KT P6SM FEW010